首页
METAR-TAF:

METAR-TAF

机场 :

圖爾恰, 罗马尼亚

纬度: 45-11N, 经度: 028-49E, 海拔: 4米

当前天气观测

该预报发布于28分钟前的13:00 UTC
风速8节,风向北转东北,在西北东转东北之间变化
温度 32°C
湿度 29%
气压 1013 hPa
能见度10公里或以上
少量云层高于5500英尺, 塔状积云.

METAR: LRTC 181300Z 02008KT 320V060 9999 FEW055TCU 32/12 Q1013

时间: 16:28 (13:28 UTC)

预报

该预报发布于2小时和28分钟前的11:00 UTC
预报有效从18日的 12点(UTC)到 18日的 21点(UTC)
风速10节,风向东北
能见度10公里或以上
1500米以下无云,无积雨云
短暂存在
从 18日的 12点(UTC)到 18日的 16点(UTC)
风速20节,风向多变
能見度: 5000
散云层高于4000英尺, 积雨云.
雷暴, 小雨

TAF: LRTC 181100Z 1812/1821 05010KT CAVOK TEMPO 1812/1816 VRB20KT 5000 -TSRA SCT040CB

超过4000个机场的气象观测和天气预报(METAR&TAF报告)。

可查询的气象台以黄色和红色小点在地图上表示。

将鼠标移到小点上方,可查看气象台名称。

然后点击查看天气观测和预报。

如需切换地图:点击带黑十字的绿色按钮放大地图;点击带横线的绿色按钮缩小地图;或者点击绿色箭头查看邻近地区的地图。


METAR-TAF: